Time;durP1;ratioP1;P1;durP2;ratioP2;P2;SDS_P1;SDS_P2;PMS_P1;PMS_P2;Temp;Humidity;BMP_temperature;BMP_pressure;BME280_temperature;BME280_humidity;BME280_pressure;Samples;Min_cycle;Max_cycle;Signal;HPM_P1;HPM_P2
2023/03/12 00:00:46;;;;;;;6.60;3.22;;;5.30;99.90;;;;;;5045583;28;20032;-65
2023/03/12 00:03:13;;;;;;;6.00;3.58;;;5.40;99.90;;;;;;5045660;28;20040;-66
2023/03/12 00:05:40;;;;;;;7.53;3.50;;;5.40;99.90;;;;;;5029245;28;20040;-68
2023/03/12 00:08:07;;;;;;;11.32;3.78;;;5.40;99.90;;;;;;5062256;28;20068;-66
2023/03/12 00:10:33;;;;;;;5.85;3.25;;;5.50;99.90;;;;;;5045527;28;20120;-66
2023/03/12 00:12:59;;;;;;;8.25;3.78;;;5.70;99.90;;;;;;5028686;28;20033;-67
2023/03/12 00:15:25;;;;;;;12.30;3.97;;;5.70;99.90;;;;;;5041871;28;20063;-67
2023/03/12 00:17:51;;;;;;;6.53;3.15;;;5.90;99.90;;;;;;5042366;28;20125;-66
2023/03/12 00:20:17;;;;;;;6.05;3.40;;;5.90;99.90;;;;;;5042306;28;20068;-65
2023/03/12 00:22:43;;;;;;;6.57;3.58;;;6.00;99.90;;;;;;5042604;28;20032;-65
2023/03/12 00:25:12;;;;;;;8.43;3.33;;;6.00;99.90;;;;;;5042200;28;20025;-65
2023/03/12 00:27:38;;;;;;;10.88;3.45;;;6.10;99.90;;;;;;5059513;28;20036;-65
2023/03/12 00:30:05;;;;;;;8.85;3.55;;;6.00;99.90;;;;;;5059306;28;20393;-65
2023/03/12 00:32:32;;;;;;;7.68;3.42;;;6.10;99.90;;;;;;5042138;28;20029;-65
2023/03/12 00:34:58;;;;;;;6.93;3.47;;;6.00;99.90;;;;;;5059289;28;20029;-65
2023/03/12 00:37:24;;;;;;;9.15;3.53;;;6.10;99.90;;;;;;5059489;28;20033;-65
2023/03/12 00:39:50;;;;;;;5.38;3.30;;;6.10;99.90;;;;;;5059194;28;20041;-64
2023/03/12 00:42:16;;;;;;;6.97;3.22;;;6.10;99.90;;;;;;5058379;28;20062;-65
2023/03/12 00:44:43;;;;;;;5.80;3.50;;;6.10;99.90;;;;;;5059118;28;20429;-65
2023/03/12 00:47:09;;;;;;;6.65;3.30;;;6.10;99.90;;;;;;5058381;28;20040;-64
2023/03/12 00:49:35;;;;;;;8.75;3.30;;;6.20;99.90;;;;;;5058204;28;20127;-66
2023/03/12 00:52:02;;;;;;;5.78;3.55;;;6.10;99.90;;;;;;5058336;28;20025;-65
2023/03/12 00:54:27;;;;;;;6.07;3.03;;;6.20;99.90;;;;;;5057990;28;20041;-65
2023/03/12 00:56:53;;;;;;;5.90;3.63;;;6.20;99.90;;;;;;5059492;28;20104;-66
2023/03/12 00:59:19;;;;;;;10.25;4.20;;;6.20;99.90;;;;;;5058793;28;20482;-65
2023/03/12 01:01:45;;;;;;;11.35;3.58;;;6.10;99.90;;;;;;5058820;28;20337;-65
2023/03/12 01:04:11;;;;;;;10.38;4.40;;;6.20;99.90;;;;;;5058169;28;20033;-65
2023/03/12 01:06:37;;;;;;;7.80;3.85;;;6.00;99.90;;;;;;5057938;28;20024;-65
2023/03/12 01:09:05;;;;;;;6.07;3.20;;;6.00;99.90;;;;;;5041352;28;20095;-65
2023/03/12 01:11:31;;;;;;;7.75;3.40;;;6.10;99.90;;;;;;5057984;28;20037;-65
2023/03/12 01:14:01;;;;;;;7.82;3.53;;;6.00;99.90;;;;;;5041343;28;20067;-65
2023/03/12 01:16:29;;;;;;;6.55;3.80;;;6.10;99.90;;;;;;5041205;28;20087;-65
2023/03/12 01:18:59;;;;;;;8.10;3.55;;;6.20;99.90;;;;;;5057772;28;20124;-65
2023/03/12 01:21:27;;;;;;;11.52;3.85;;;6.10;99.90;;;;;;5058889;28;20025;-63
2023/03/12 01:23:54;;;;;;;7.03;3.55;;;6.10;99.90;;;;;;5057640;28;20110;-64
2023/03/12 01:26:19;;;;;;;8.20;4.00;;;6.10;99.90;;;;;;5056397;28;20021;-65
2023/03/12 01:28:45;;;;;;;10.73;3.50;;;6.10;99.90;;;;;;5058301;28;20033;-66
2023/03/12 01:31:14;;;;;;;9.20;3.90;;;6.10;99.90;;;;;;5057641;28;20091;-64
2023/03/12 01:33:40;;;;;;;7.80;4.18;;;6.00;99.90;;;;;;5058630;28;20025;-65
2023/03/12 01:36:16;;;;;;;8.32;3.78;;;6.20;99.90;;;;;;5058223;28;20037;-65
2023/03/12 01:38:42;;;;;;;5.65;3.53;;;6.20;99.90;;;;;;5058183;28;20033;-65
2023/03/12 01:41:08;;;;;;;6.78;3.38;;;6.10;99.90;;;;;;5040674;28;20447;-64
2023/03/12 01:43:37;;;;;;;9.88;3.85;;;6.00;99.90;;;;;;5040800;28;20351;-64
2023/03/12 01:46:18;;;;;;;8.55;3.85;;;6.00;99.90;;;;;;5057200;28;20025;-64
2023/03/12 01:48:49;;;;;;;8.57;4.03;;;6.10;99.90;;;;;;5057134;28;20025;-65
2023/03/12 01:51:17;;;;;;;14.70;4.20;;;6.00;99.90;;;;;;5040545;28;20024;-64
2023/03/12 01:53:47;;;;;;;10.10;4.47;;;6.10;99.90;;;;;;5040475;28;20120;-66
2023/03/12 01:56:16;;;;;;;9.23;4.32;;;6.20;99.90;;;;;;5056875;28;20079;-64
2023/03/12 01:58:47;;;;;;;10.00;4.03;;;6.10;99.90;;;;;;5057734;28;20028;-65
2023/03/12 02:01:16;;;;;;;7.03;4.03;;;6.10;99.90;;;;;;5056966;28;20085;-63
2023/03/12 02:03:45;;;;;;;6.82;4.15;;;6.20;99.90;;;;;;5056937;28;20039;-64
2023/03/12 02:06:14;;;;;;;9.13;4.18;;;6.30;99.90;;;;;;5057705;28;20308;-65
2023/03/12 02:08:44;;;;;;;8.27;3.88;;;6.20;99.90;;;;;;5056823;28;20442;-65
2023/03/12 02:11:11;;;;;;;7.70;4.25;;;6.10;99.90;;;;;;5056842;28;20040;-65
2023/03/12 02:13:38;;;;;;;9.40;4.07;;;6.00;99.90;;;;;;5040159;28;20034;-65
2023/03/12 02:16:05;;;;;;;6.93;3.75;;;6.00;99.90;;;;;;5056716;28;20047;-66
2023/03/12 02:18:34;;;;;;;7.45;3.72;;;5.90;99.90;;;;;;5040093;28;20033;-64
2023/03/12 02:21:22;;;;;;;6.15;3.92;;;5.90;99.90;;;;;;5056687;28;20036;-64
2023/03/12 02:24:11;;;;;;;9.77;4.18;;;5.90;99.90;;;;;;5056690;28;20289;-65
2023/03/12 02:26:38;;;;;;;9.52;3.85;;;5.90;99.90;;;;;;5056779;28;20028;-64
2023/03/12 02:29:07;;;;;;;8.57;3.70;;;5.90;99.90;;;;;;5056702;28;20036;-65
2023/03/12 02:31:41;;;;;;;6.15;3.80;;;5.80;99.90;;;;;;5057226;28;20116;-66
2023/03/12 02:34:08;;;;;;;5.47;3.60;;;5.70;99.90;;;;;;5057718;28;20025;-65
2023/03/12 02:36:35;;;;;;;8.35;3.90;;;5.60;99.90;;;;;;5056692;28;20033;-65
2023/03/12 02:39:01;;;;;;;5.10;3.30;;;5.50;99.90;;;;;;5039711;28;20033;-66
2023/03/12 02:41:52;;;;;;;4.68;3.40;;;5.50;99.90;;;;;;5056813;28;20090;-61
2023/03/12 02:44:30;;;;;;;6.90;3.05;;;5.50;99.90;;;;;;5039746;28;20351;-62
2023/03/12 02:46:58;;;;;;;7.13;3.30;;;5.30;99.90;;;;;;5039670;28;20029;-63
2023/03/12 02:49:27;;;;;;;5.78;2.95;;;5.30;99.90;;;;;;5056268;28;20037;-62
2023/03/12 02:51:53;;;;;;;5.03;2.95;;;5.20;99.90;;;;;;5056127;28;20021;-61
2023/03/12 02:54:21;;;;;;;5.15;2.63;;;5.00;99.90;;;;;;5056007;28;20341;-62
2023/03/12 02:56:49;;;;;;;6.70;2.63;;;5.10;99.90;;;;;;5056261;28;20300;-61
2023/03/12 02:59:15;;;;;;;5.72;2.78;;;4.90;99.90;;;;;;5056076;28;20029;-61
2023/03/12 03:01:43;;;;;;;8.30;3.40;;;4.90;99.90;;;;;;5055921;28;20047;-62
2023/03/12 03:04:10;;;;;;;5.60;3.22;;;4.90;99.90;;;;;;5056069;28;20120;-62
2023/03/12 03:06:39;;;;;;;8.70;3.38;;;4.80;99.90;;;;;;5056756;28;20432;-63
2023/03/12 03:09:06;;;;;;;6.07;3.10;;;4.80;99.90;;;;;;5055960;28;20090;-63
2023/03/12 03:11:32;;;;;;;6.82;3.03;;;5.00;99.90;;;;;;5055885;28;20029;-63
2023/03/12 03:14:03;;;;;;;8.68;2.92;;;5.20;99.90;;;;;;5040596;28;20258;-61
2023/03/12 03:16:29;;;;;;;7.10;2.90;;;5.20;99.90;;;;;;5056352;28;20037;-61
2023/03/12 03:18:57;;;;;;;6.55;2.95;;;5.00;99.90;;;;;;5056726;28;20072;-61
2023/03/12 03:21:23;;;;;;;7.32;2.88;;;4.80;99.90;;;;;;5055846;28;20415;-62
2023/03/12 03:23:49;;;;;;;6.55;2.90;;;4.80;99.90;;;;;;5056645;28;20033;-62
2023/03/12 03:26:20;;;;;;;5.68;2.95;;;4.80;99.90;;;;;;5039173;28;20091;-61
2023/03/12 03:28:47;;;;;;;5.60;2.83;;;4.70;99.90;;;;;;5040252;28;20057;-62
2023/03/12 03:31:14;;;;;;;4.80;2.92;;;4.70;99.90;;;;;;5055813;28;20304;-62
2023/03/12 03:33:41;;;;;;;5.78;3.08;;;4.80;99.90;;;;;;5056523;28;20033;-62
2023/03/12 03:36:09;;;;;;;6.38;2.90;;;4.90;99.90;;;;;;5056528;28;20025;-62
2023/03/12 03:38:43;;;;;;;8.68;3.63;;;4.80;99.90;;;;;;5055686;28;20025;-62
2023/03/12 03:41:08;;;;;;;7.20;3.00;;;4.80;99.90;;;;;;5055635;28;20083;-61
2023/03/12 03:43:39;;;;;;;5.72;3.15;;;4.90;99.90;;;;;;5055641;28;20128;-61
2023/03/12 03:46:06;;;;;;;5.72;2.85;;;4.90;99.90;;;;;;5056405;28;20086;-62
2023/03/12 03:48:36;;;;;;;4.43;2.70;;;4.90;99.90;;;;;;5040027;28;20026;-63
2023/03/12 03:51:09;;;;;;;6.13;2.92;;;4.90;99.90;;;;;;5042920;28;20041;-62
2023/03/12 03:53:39;;;;;;;10.95;3.35;;;4.90;99.90;;;;;;5060289;28;20075;-61
2023/03/12 03:56:11;;;;;;;4.85;3.00;;;4.90;99.90;;;;;;5059201;28;20045;-63
2023/03/12 03:58:40;;;;;;;10.15;3.58;;;5.00;99.90;;;;;;5059296;28;20029;-61
2023/03/12 04:01:07;;;;;;;6.25;3.00;;;5.00;99.90;;;;;;5061088;28;20048;-64
2023/03/12 04:03:33;;;;;;;8.15;2.83;;;5.10;99.90;;;;;;5059228;28;20094;-60
2023/03/12 04:06:02;;;;;;;8.02;2.97;;;5.10;99.90;;;;;;5059111;28;20021;-62
2023/03/12 04:08:29;;;;;;;12.75;3.25;;;5.00;99.90;;;;;;5059067;28;20033;-63
2023/03/12 04:10:55;;;;;;;5.78;2.63;;;5.10;99.90;;;;;;5059013;28;20095;-63
2023/03/12 04:13:21;;;;;;;7.82;2.50;;;5.10;99.90;;;;;;5059000;28;20292;-61
2023/03/12 04:15:48;;;;;;;5.28;3.03;;;5.20;99.90;;;;;;5059099;28;20029;-62
2023/03/12 04:18:15;;;;;;;8.82;2.80;;;5.20;99.90;;;;;;5042494;28;20032;-61
2023/03/12 04:20:41;;;;;;;6.72;2.50;;;5.20;99.90;;;;;;5058909;28;20278;-60
2023/03/12 04:23:07;;;;;;;8.95;2.90;;;5.10;99.90;;;;;;5058784;28;20053;-62
2023/03/12 04:25:33;;;;;;;6.57;2.70;;;5.10;99.90;;;;;;5059864;28;20431;-62
2023/03/12 04:28:00;;;;;;;5.40;2.47;;;5.00;99.90;;;;;;5025783;28;20361;-63
2023/03/12 04:30:26;;;;;;;5.80;2.63;;;4.90;99.90;;;;;;5058641;28;20036;-62
2023/03/12 04:32:52;;;;;;;7.97;2.67;;;5.00;99.90;;;;;;5025617;28;20077;-62
2023/03/12 04:35:19;;;;;;;6.18;2.80;;;5.10;99.90;;;;;;5042027;28;20030;-62
2023/03/12 04:37:45;;;;;;;7.22;2.80;;;5.20;99.90;;;;;;5059631;28;20134;-62
2023/03/12 04:40:12;;;;;;;9.05;3.05;;;5.20;99.90;;;;;;5059185;28;20059;-61
2023/03/12 04:42:38;;;;;;;6.65;2.88;;;5.30;99.90;;;;;;5042055;28;20132;-62
2023/03/12 04:45:06;;;;;;;11.82;3.20;;;5.20;99.90;;;;;;5058529;28;20300;-63
2023/03/12 04:47:34;;;;;;;9.55;2.90;;;5.20;99.90;;;;;;5026117;28;20021;-63
2023/03/12 04:50:00;;;;;;;4.75;2.75;;;5.10;99.90;;;;;;5059108;28;20099;-62
2023/03/12 04:52:27;;;;;;;7.10;2.83;;;5.10;99.90;;;;;;5041755;28;20041;-62
2023/03/12 04:54:53;;;;;;;9.85;3.30;;;5.10;99.90;;;;;;5041453;28;20068;-63
2023/03/12 04:57:20;;;;;;;7.88;2.80;;;5.10;99.90;;;;;;5058185;28;20036;-61
2023/03/12 04:59:46;;;;;;;8.50;2.85;;;5.10;99.90;;;;;;5041182;28;20289;-60
2023/03/12 05:02:12;;;;;;;8.27;3.22;;;5.10;99.90;;;;;;5058078;28;20074;-59
2023/03/12 05:04:38;;;;;;;7.00;2.72;;;5.00;99.90;;;;;;5057957;28;20112;-62
2023/03/12 05:07:04;;;;;;;4.50;2.92;;;4.90;99.90;;;;;;5059234;28;20192;-62
2023/03/12 05:09:30;;;;;;;8.98;3.10;;;4.90;99.90;;;;;;5041289;28;20025;-64
2023/03/12 05:11:55;;;;;;;7.68;2.85;;;4.90;99.90;;;;;;5041393;28;20368;-62
2023/03/12 05:14:22;;;;;;;5.22;2.70;;;5.00;99.90;;;;;;5057940;28;20451;-62
2023/03/12 05:16:48;;;;;;;7.72;3.50;;;5.00;99.90;;;;;;5057807;28;20039;-64
2023/03/12 05:19:14;;;;;;;7.30;2.83;;;5.10;99.90;;;;;;5041163;28;20029;-63
2023/03/12 05:21:41;;;;;;;6.43;3.22;;;5.10;99.90;;;;;;5057602;28;20325;-63
2023/03/12 05:24:09;;;;;;;6.25;3.40;;;5.10;99.90;;;;;;5057573;28;20079;-62
2023/03/12 05:26:35;;;;;;;7.25;3.30;;;5.10;99.90;;;;;;5058257;28;20381;-61
2023/03/12 05:29:16;;;;;;;8.85;3.42;;;5.00;99.90;;;;;;5057483;28;20051;-62
2023/03/12 05:31:43;;;;;;;8.00;3.17;;;5.00;99.90;;;;;;5024967;28;20039;-62
2023/03/12 05:34:11;;;;;;;9.60;3.42;;;5.10;99.90;;;;;;5040872;28;20313;-61
2023/03/12 05:36:39;;;;;;;5.68;3.50;;;5.10;99.90;;;;;;5057442;28;20078;-61
2023/03/12 05:39:05;;;;;;;8.77;3.65;;;5.10;99.90;;;;;;5040866;28;20060;-62
2023/03/12 05:41:33;;;;;;;8.93;3.78;;;5.10;99.90;;;;;;5040868;28;20040;-61
2023/03/12 05:44:05;;;;;;;7.53;3.28;;;5.10;99.90;;;;;;5057252;28;20029;-63
2023/03/12 05:46:31;;;;;;;7.18;2.97;;;5.20;99.90;;;;;;5040689;28;20025;-62
2023/03/12 05:48:58;;;;;;;4.97;3.70;;;5.20;99.90;;;;;;5057076;28;20032;-61
2023/03/12 05:51:24;;;;;;;6.95;3.90;;;5.30;99.90;;;;;;5058145;28;20029;-62
2023/03/12 05:53:50;;;;;;;7.40;3.90;;;5.20;99.90;;;;;;5040812;28;20460;-61
2023/03/12 05:56:17;;;;;;;6.72;3.53;;;5.20;99.90;;;;;;5040367;28;20171;-63
2023/03/12 05:58:46;;;;;;;9.50;4.25;;;5.00;99.90;;;;;;5057141;28;20086;-62
2023/03/12 06:01:15;;;;;;;8.57;4.60;;;5.00;99.90;;;;;;5056802;28;20033;-64
2023/03/12 06:03:41;;;;;;;6.95;4.20;;;5.00;99.90;;;;;;5056892;28;20040;-62
2023/03/12 06:06:09;;;;;;;7.07;4.72;;;5.00;99.90;;;;;;5056867;28;20471;-63
2023/03/12 06:08:34;;;;;;;6.32;4.82;;;5.10;99.90;;;;;;5040376;28;20025;-60
2023/03/12 06:11:00;;;;;;;11.07;5.38;;;5.10;99.90;;;;;;5056413;28;20083;-61
2023/03/12 06:13:27;;;;;;;8.93;5.38;;;5.10;99.90;;;;;;5039931;28;20053;-61
2023/03/12 06:16:09;;;;;;;10.70;6.35;;;5.20;99.90;;;;;;5024223;28;20033;-61
2023/03/12 06:18:36;;;;;;;8.95;6.07;;;5.10;99.90;;;;;;5056594;28;20029;-61
2023/03/12 06:21:18;;;;;;;12.05;6.60;;;5.10;99.90;;;;;;5056447;28;20051;-61
2023/03/12 06:23:45;;;;;;;13.02;7.00;;;5.20;99.90;;;;;;5040106;28;20021;-61
2023/03/12 06:26:16;;;;;;;14.00;6.72;;;5.20;99.90;;;;;;5024599;28;20029;-61
2023/03/12 06:28:45;;;;;;;10.90;7.00;;;5.20;99.90;;;;;;5023200;28;20036;-62
2023/03/12 06:31:11;;;;;;;14.35;7.78;;;5.30;99.90;;;;;;5056257;28;20041;-62
2023/03/12 06:33:37;;;;;;;13.73;7.60;;;5.40;99.90;;;;;;5057089;28;20036;-61
2023/03/12 06:36:05;;;;;;;11.73;8.02;;;5.30;99.90;;;;;;5056346;28;20087;-62
2023/03/12 06:38:32;;;;;;;14.25;8.93;;;5.30;99.90;;;;;;5056912;28;20037;-62
2023/03/12 06:40:59;;;;;;;14.55;9.05;;;5.40;99.90;;;;;;5055993;28;20341;-61
2023/03/12 06:43:27;;;;;;;13.07;9.38;;;5.50;99.90;;;;;;5056831;28;20047;-61
2023/03/12 06:45:55;;;;;;;20.27;11.55;;;5.40;99.90;;;;;;5056130;28;20032;-62
2023/03/12 06:48:21;;;;;;;23.95;12.23;;;5.50;99.90;;;;;;5056956;28;20369;-62
2023/03/12 06:50:47;;;;;;;21.13;12.52;;;5.50;99.90;;;;;;5056175;28;20039;-60
2023/03/12 06:53:13;;;;;;;19.15;12.40;;;5.50;99.90;;;;;;5056243;28;20120;-63
2023/03/12 06:55:39;;;;;;;18.90;13.02;;;5.60;99.90;;;;;;5056775;28;20053;-63
2023/03/12 06:58:05;;;;;;;21.08;13.95;;;5.60;99.90;;;;;;5039602;28;20342;-60
2023/03/12 07:00:31;;;;;;;23.40;14.00;;;5.70;99.90;;;;;;5056706;28;20308;-61
2023/03/12 07:02:57;;;;;;;21.65;15.38;;;5.70;99.90;;;;;;5056127;28;20046;-62
2023/03/12 07:05:24;;;;;;;21.77;14.25;;;5.80;99.90;;;;;;5056941;28;20110;-63
2023/03/12 07:07:50;;;;;;;20.30;14.05;;;5.90;99.90;;;;;;5056699;28;20032;-62
2023/03/12 07:10:16;;;;;;;21.75;14.30;;;6.00;99.90;;;;;;5056572;28;20025;-62
2023/03/12 07:12:43;;;;;;;25.35;14.80;;;6.00;99.90;;;;;;5056682;28;20048;-61
2023/03/12 07:15:09;;;;;;;23.63;15.15;;;6.10;99.90;;;;;;5056762;28;20037;-61
2023/03/12 07:17:35;;;;;;;28.85;15.85;;;6.20;99.90;;;;;;5055961;28;20033;-62
2023/03/12 07:20:01;;;;;;;25.75;14.63;;;6.30;99.90;;;;;;5056553;28;20296;-62
2023/03/12 07:22:27;;;;;;;22.38;14.90;;;6.30;99.90;;;;;;5056121;28;20033;-62
2023/03/12 07:24:53;;;;;;;22.70;15.52;;;6.40;99.90;;;;;;5061074;28;20348;-62
2023/03/12 07:27:19;;;;;;;26.17;15.32;;;6.40;99.90;;;;;;5060581;28;20040;-62
2023/03/12 07:29:45;;;;;;;26.95;15.65;;;6.40;99.90;;;;;;5061097;28;20056;-61
2023/03/12 07:32:11;;;;;;;29.02;16.58;;;6.50;99.90;;;;;;5059960;28;20139;-61
2023/03/12 07:34:36;;;;;;;26.73;16.10;;;6.50;99.90;;;;;;5059919;28;20025;-62
2023/03/12 07:37:03;;;;;;;27.73;15.90;;;6.60;99.90;;;;;;5060467;28;20062;-62
2023/03/12 07:39:30;;;;;;;27.77;16.95;;;6.70;99.90;;;;;;5060487;28;20396;-65
2023/03/12 07:41:56;;;;;;;24.80;15.73;;;7.00;99.90;;;;;;5059681;28;20029;-61
2023/03/12 07:44:22;;;;;;;25.55;15.27;;;7.10;99.90;;;;;;5060817;28;20025;-63
2023/03/12 07:46:48;;;;;;;28.15;16.23;;;7.20;99.90;;;;;;5060281;28;20020;-61
2023/03/12 07:49:13;;;;;;;34.97;16.42;;;7.30;99.90;;;;;;5059572;28;20032;-61
2023/03/12 07:51:39;;;;;;;33.42;16.95;;;7.30;99.90;;;;;;5060169;28;20039;-60
2023/03/12 07:54:05;;;;;;;30.00;16.38;;;7.30;99.90;;;;;;5059478;28;20040;-61
2023/03/12 07:56:34;;;;;;;31.33;17.38;;;7.40;99.90;;;;;;5059298;28;20323;-63
2023/03/12 07:58:59;;;;;;;39.45;17.23;;;7.60;99.90;;;;;;5059869;28;20108;-62
2023/03/12 08:01:30;;;;;;;35.25;16.70;;;7.70;99.90;;;;;;5059222;28;20345;-62
2023/03/12 08:04:01;;;;;;;35.85;17.33;;;8.00;99.90;;;;;;5043429;28;20274;-61
2023/03/12 08:06:28;;;;;;;33.53;16.63;;;8.10;99.90;;;;;;5059859;28;20456;-63
2023/03/12 08:08:54;;;;;;;35.17;16.80;;;8.10;99.90;;;;;;5059160;28;20115;-64
2023/03/12 08:11:20;;;;;;;38.58;17.20;;;8.30;99.90;;;;;;5059070;28;20107;-64
2023/03/12 08:13:47;;;;;;;41.70;15.85;;;8.30;99.90;;;;;;5059113;28;20029;-67
2023/03/12 08:16:13;;;;;;;38.42;16.40;;;8.40;99.90;;;;;;5059650;28;20128;-63
2023/03/12 08:18:41;;;;;;;34.75;15.23;;;8.60;99.90;;;;;;5059071;28;20278;-61
2023/03/12 08:21:07;;;;;;;33.25;15.23;;;8.80;99.90;;;;;;5059564;28;20033;-64
2023/03/12 08:23:34;;;;;;;35.10;15.40;;;8.90;99.90;;;;;;5059557;28;20099;-64
2023/03/12 08:26:00;;;;;;;39.60;14.77;;;8.90;99.90;;;;;;5059556;28;20025;-62
2023/03/12 08:28:26;;;;;;;40.63;14.88;;;9.10;99.90;;;;;;5059523;28;20029;-61
2023/03/12 08:30:54;;;;;;;40.75;15.07;;;9.20;99.90;;;;;;5059395;28;20110;-64
2023/03/12 08:33:21;;;;;;;32.13;13.73;;;9.40;99.90;;;;;;5059157;28;20086;-63
2023/03/12 08:35:48;;;;;;;43.20;14.82;;;9.60;99.90;;;;;;5058884;28;20033;-65
2023/03/12 08:38:14;;;;;;;40.35;13.73;;;9.90;99.90;;;;;;5059285;28;20044;-62
2023/03/12 08:40:40;;;;;;;33.45;13.38;;;10.00;99.90;;;;;;5059254;28;20029;-63
2023/03/12 08:43:09;;;;;;;42.15;14.20;;;9.90;99.90;;;;;;5041801;28;20033;-67
2023/03/12 08:45:35;;;;;;;33.13;13.60;;;10.10;99.90;;;;;;5058570;28;20270;-64
2023/03/12 08:48:05;;;;;;;38.53;13.57;;;10.40;99.90;;;;;;5059117;28;20025;-65
2023/03/12 08:50:32;;;;;;;39.15;12.85;;;10.30;99.90;;;;;;5058402;28;20308;-64
2023/03/12 08:52:58;;;;;;;39.72;12.07;;;10.30;99.90;;;;;;5059109;28;20029;-64
2023/03/12 08:55:26;;;;;;;36.45;11.38;;;10.50;99.90;;;;;;5057999;28;20079;-62
2023/03/12 08:57:53;;;;;;;31.92;11.55;;;10.50;99.90;;;;;;5058945;28;20048;-63
2023/03/12 09:00:19;;;;;;;31.60;10.95;;;10.50;99.90;;;;;;5059024;28;20366;-62
2023/03/12 09:02:46;;;;;;;32.10;10.30;;;10.60;99.90;;;;;;5058191;28;20035;-63
2023/03/12 09:05:13;;;;;;;32.85;10.60;;;10.70;99.90;;;;;;5041516;28;20036;-63
2023/03/12 09:07:39;;;;;;;35.55;10.43;;;10.90;99.90;;;;;;5058761;28;20033;-62
2023/03/12 09:10:05;;;;;;;31.92;10.27;;;11.10;99.90;;;;;;5058580;28;20035;-64
2023/03/12 09:12:32;;;;;;;34.13;10.00;;;11.20;99.90;;;;;;5057964;28;20039;-67
2023/03/12 09:14:57;;;;;;;27.40;9.15;;;10.90;99.90;;;;;;5058254;28;20029;-62
2023/03/12 09:17:23;;;;;;;29.73;8.75;;;10.90;99.90;;;;;;5057720;28;20037;-64
2023/03/12 09:19:49;;;;;;;29.75;8.75;;;11.10;99.90;;;;;;5041106;28;20094;-63
2023/03/12 09:22:16;;;;;;;31.27;9.30;;;11.30;99.90;;;;;;5057716;28;20029;-62
2023/03/12 09:24:42;;;;;;;35.22;9.13;;;11.50;99.90;;;;;;5058325;28;20032;-63
2023/03/12 09:27:08;;;;;;;33.13;8.65;;;11.70;99.90;;;;;;5057263;28;20297;-60
2023/03/12 09:29:35;;;;;;;31.45;8.32;;;11.70;99.90;;;;;;5057088;28;20035;-63
2023/03/12 09:32:01;;;;;;;30.95;8.23;;;11.50;99.90;;;;;;5040898;28;20029;-64
2023/03/12 09:34:26;;;;;;;28.25;6.95;;;11.60;99.90;;;;;;5057478;28;20071;-67
2023/03/12 09:36:53;;;;;;;29.00;6.80;;;11.90;99.90;;;;;;5057463;28;20445;-65
2023/03/12 09:39:19;;;;;;;37.63;7.53;;;12.00;99.90;;;;;;5040707;28;20040;-64
2023/03/12 09:41:47;;;;;;;26.05;6.80;;;12.10;99.90;;;;;;5057451;28;20281;-63
2023/03/12 09:44:24;;;;;;;27.92;6.78;;;12.00;99.90;;;;;;5058424;28;20033;-63
2023/03/12 09:46:56;;;;;;;31.00;6.80;;;12.00;99.90;;;;;;5056235;28;20375;-63
2023/03/12 09:49:46;;;;;;;23.55;5.97;;;11.90;99.90;;;;;;5057031;28;20059;-63
2023/03/12 09:52:28;;;;;;;33.22;6.72;;;12.10;99.90;;;;;;5057164;28;20033;-59
2023/03/12 09:54:57;;;;;;;28.15;6.28;;;12.20;99.90;;;;;;5056916;28;20045;-65
2023/03/12 09:57:25;;;;;;;24.10;5.72;;;12.20;99.90;;;;;;5057740;28;20439;-61
2023/03/12 09:59:52;;;;;;;32.67;6.88;;;12.40;99.90;;;;;;5058086;28;20388;-71
2023/03/12 10:02:26;;;;;;;34.05;7.10;;;12.50;99.90;;;;;;5040416;28;20119;-67
2023/03/12 10:05:04;;;;;;;35.30;6.78;;;12.20;99.90;;;;;;5057497;28;20194;-65
2023/03/12 10:07:40;;;;;;;25.02;6.05;;;12.30;99.90;;;;;;5056845;28;20107;-70
2023/03/12 10:10:18;;;;;;;27.27;6.28;;;12.30;99.90;;;;;;5056873;28;20056;-66
2023/03/12 10:13:28;;;;;;;29.83;6.60;;;12.40;99.90;;;;;;5057566;28;20028;-68
2023/03/12 10:16:10;;;;;;;24.98;6.07;;;12.60;99.90;;;;;;5057490;28;20033;-67
2023/03/12 10:18:38;;;;;;;26.73;5.93;;;12.60;99.90;;;;;;5040093;28;20033;-66
2023/03/12 10:21:25;;;;;;;24.05;5.78;;;12.60;99.90;;;;;;5039828;28;20047;-63
2023/03/12 10:24:04;;;;;;;29.48;5.95;;;12.50;99.90;;;;;;5056504;28;20068;-62
2023/03/12 10:26:33;;;;;;;36.22;6.63;;;12.40;99.90;;;;;;5056702;28;20028;-68
2023/03/12 10:29:04;;;;;;;31.50;6.22;;;12.20;99.90;;;;;;5056424;28;20274;-68
2023/03/12 10:31:47;;;;;;;29.83;6.18;;;12.60;99.90;;;;;;5040198;28;20404;-62
2023/03/12 10:34:16;;;;;;;;;;;12.70;99.90;;;;;;5056840;28;20071;-68
2023/03/12 10:36:44;;;;;;;30.58;6.28;;;12.70;99.90;;;;;;5057234;28;19912;-69
2023/03/12 10:39:15;;;;;;;28.90;6.13;;;13.00;99.90;;;;;;5056051;28;20049;-62
2023/03/12 10:41:43;;;;;;;30.98;6.30;;;13.00;99.90;;;;;;5056376;28;20356;-67
2023/03/12 10:44:17;;;;;;;28.70;5.88;;;12.80;99.90;;;;;;5057102;28;20036;-68
2023/03/12 10:46:55;;;;;;;31.20;6.55;;;13.00;99.90;;;;;;5056252;28;20052;-65
2023/03/12 10:49:22;;;;;;;31.10;6.22;;;13.10;99.90;;;;;;5056561;28;20119;-70
2023/03/12 10:52:13;;;;;;;28.02;5.45;;;13.70;99.90;;;;;;5056854;28;20029;-64
2023/03/12 10:54:40;;;;;;;28.42;5.10;;;14.00;99.90;;;;;;5056408;28;20033;-67
2023/03/12 10:57:07;;;;;;;25.77;4.82;;;13.80;99.90;;;;;;5039951;28;20051;-73
2023/03/12 10:59:42;;;;;;;27.92;5.28;;;13.80;99.90;;;;;;5055799;28;20036;-67
2023/03/12 11:02:35;;;;;;;30.42;5.85;;;13.80;99.90;;;;;;5055986;28;20044;-71
2023/03/12 11:05:17;;;;;;;30.33;5.95;;;13.50;99.90;;;;;;5055911;28;20025;-68
2023/03/12 11:07:43;;;;;;;29.42;5.20;;;13.50;99.90;;;;;;5055992;28;20044;-64
2023/03/12 11:10:09;;;;;;;26.90;5.30;;;13.70;99.90;;;;;;5056574;28;20345;-64
2023/03/12 11:12:38;;;;;;;29.08;5.97;;;13.70;99.90;;;;;;5056655;28;20300;-63
2023/03/12 11:15:27;;;;;;;28.70;6.03;;;13.70;99.90;;;;;;5057000;28;20346;-66
2023/03/12 11:18:24;;;;;;;27.00;5.80;;;13.80;99.90;;;;;;5056724;28;20037;-64
2023/03/12 11:21:15;;;;;;;27.63;5.50;;;13.90;99.90;;;;;;5056058;28;20036;-67
2023/03/12 11:23:55;;;;;;;29.90;6.25;;;14.00;99.90;;;;;;5052997;28;20033;-63
2023/03/12 11:26:24;;;;;;;26.85;5.30;;;14.20;99.90;;;;;;5055721;28;20460;-69
2023/03/12 11:28:58;;;;;;;25.40;4.97;;;14.40;99.90;;;;;;5055882;28;20044;-66
2023/03/12 11:31:26;;;;;;;26.13;4.97;;;14.50;99.90;;;;;;5056435;28;20064;-68
2023/03/12 11:33:56;;;;;;;23.80;5.60;;;14.20;99.90;;;;;;5055585;28;20112;-66
2023/03/12 11:36:40;;;;;;;23.38;4.90;;;14.10;99.90;;;;;;5055704;28;20064;-67
2023/03/12 11:39:15;;;;;;;32.28;5.40;;;14.20;99.90;;;;;;5055520;28;20028;-66
2023/03/12 11:41:55;;;;;;;26.52;4.90;;;14.10;99.90;;;;;;5056508;28;20025;-67
2023/03/12 11:44:44;;;;;;;23.48;5.63;;;14.10;99.90;;;;;;5055590;28;20021;-67
2023/03/12 11:47:27;;;;;;;25.65;5.63;;;14.20;99.90;;;;;;5056641;28;20065;-65
2023/03/12 11:50:13;;;;;;;27.90;5.30;;;14.10;99.90;;;;;;5055446;28;20025;-71
2023/03/12 11:52:57;;;;;;;25.20;5.25;;;14.10;99.90;;;;;;5055462;28;20029;-67
2023/03/12 11:55:48;;;;;;;29.38;6.05;;;14.50;99.90;;;;;;5055154;28;20045;-65
2023/03/12 11:58:16;;;;;;;28.17;5.07;;;14.30;99.90;;;;;;5055383;28;20039;-71
2023/03/12 12:00:59;;;;;;;23.25;4.65;;;14.20;99.90;;;;;;5055591;28;20328;-70
2023/03/12 12:04:03;;;;;;;23.52;5.10;;;14.50;99.90;;;;;;5038987;28;20025;-64
2023/03/12 12:06:50;;;;;;;27.58;5.20;;;14.70;99.90;;;;;;5056273;28;20025;-69
2023/03/12 12:09:20;;;;;;;28.90;5.13;;;14.50;99.90;;;;;;5055581;28;20028;-65
2023/03/12 12:12:10;;;;;;;28.20;5.28;;;14.40;99.90;;;;;;5059877;28;20288;-70
2023/03/12 12:14:39;;;;;;;24.75;5.78;;;14.30;99.90;;;;;;5058961;28;20029;-67
2023/03/12 12:17:14;;;;;;;26.98;5.30;;;14.00;99.90;;;;;;5058952;28;20033;-68
2023/03/12 12:20:08;;;;;;;26.60;5.32;;;14.00;99.90;;;;;;5058869;28;20304;-65
2023/03/12 12:23:00;;;;;;;24.13;5.38;;;14.00;99.90;;;;;;5059654;28;20033;-67
2023/03/12 12:25:52;;;;;;;24.40;5.10;;;14.10;99.90;;;;;;5059600;28;20017;-68
2023/03/12 12:28:53;;;;;;;24.30;4.45;;;14.30;99.90;;;;;;5058783;28;20123;-66
2023/03/12 12:31:32;;;;;;;23.75;5.28;;;14.50;99.90;;;;;;5058536;28;20025;-63
2023/03/12 12:34:03;;;;;;;21.42;4.45;;;14.30;99.90;;;;;;5058567;28;20040;-61
2023/03/12 12:36:34;;;;;;;22.00;4.60;;;13.70;99.90;;;;;;5059899;28;20052;-62
2023/03/12 12:39:33;;;;;;;23.33;4.88;;;13.60;99.90;;;;;;5058578;28;20271;-62
2023/03/12 12:42:03;;;;;;;29.73;5.28;;;13.50;99.90;;;;;;5058307;28;20029;-62
2023/03/12 12:44:37;;;;;;;31.33;5.60;;;13.50;99.90;;;;;;5059129;28;20108;-61
2023/03/12 12:47:12;;;;;;;27.55;5.05;;;13.50;99.90;;;;;;5058418;28;20316;-61
2023/03/12 12:49:56;;;;;;;31.90;5.07;;;13.20;99.90;;;;;;5059394;28;20028;-62
2023/03/12 12:52:22;;;;;;;27.75;5.30;;;13.30;99.90;;;;;;5041650;28;20022;-62
2023/03/12 12:55:12;;;;;;;35.17;5.15;;;13.40;99.90;;;;;;5058694;28;20072;-64
2023/03/12 12:58:02;;;;;;;33.05;5.97;;;13.60;99.90;;;;;;5041408;28;20029;-66
2023/03/12 13:00:48;;;;;;;29.90;5.30;;;13.80;99.90;;;;;;5041579;28;20272;-66